sensor_id;sensor_type;location;lat;lon;timestamp;pressure;altitude;pressure_sealevel;temperature
68440;BMP180;55421;51.600;5.718;2022-09-21T00:01:25;220970.00;;;11.68
68440;BMP180;55421;51.600;5.718;2022-09-21T00:03:59;220982.00;;;11.70
68440;BMP180;55421;51.600;5.718;2022-09-21T00:06:28;220990.80;;;11.70
68440;BMP180;55421;51.600;5.718;2022-09-21T00:08:55;220953.20;;;11.60
68440;BMP180;55421;51.600;5.718;2022-09-21T00:11:26;220933.59;;;11.60
68440;BMP180;55421;51.600;5.718;2022-09-21T00:14:07;220923.59;;;11.60
68440;BMP180;55421;51.600;5.718;2022-09-21T00:16:35;220919.20;;;11.58
68440;BMP180;55421;51.600;5.718;2022-09-21T00:19:03;220914.80;;;11.56
68440;BMP180;55421;51.600;5.718;2022-09-21T00:21:29;220916.41;;;11.58
68440;BMP180;55421;51.600;5.718;2022-09-21T00:23:57;220944.80;;;11.60
68440;BMP180;55421;51.600;5.718;2022-09-21T00:26:26;220968.41;;;11.62
68440;BMP180;55421;51.600;5.718;2022-09-21T00:28:58;220958.80;;;11.60
68440;BMP180;55421;51.600;5.718;2022-09-21T00:31:27;220942.80;;;11.60
68440;BMP180;55421;51.600;5.718;2022-09-21T00:33:54;220926.41;;;11.60
68440;BMP180;55421;51.600;5.718;2022-09-21T00:36:23;220916.41;;;11.58
68440;BMP180;55421;51.600;5.718;2022-09-21T00:38:58;220955.59;;;11.60
68440;BMP180;55421;51.600;5.718;2022-09-21T00:41:29;220970.00;;;11.64
68440;BMP180;55421;51.600;5.718;2022-09-21T00:44:31;220948.80;;;11.60
68440;BMP180;55421;51.600;5.718;2022-09-21T00:47:59;220926.41;;;11.60
68440;BMP180;55421;51.600;5.718;2022-09-21T00:50:12;220901.20;;;11.50
68440;BMP180;55421;51.600;5.718;2022-09-21T00:52:51;220870.41;;;11.50
68440;BMP180;55421;51.600;5.718;2022-09-21T00:55:25;220868.80;;;11.50
68440;BMP180;55421;51.600;5.718;2022-09-21T00:57:59;220853.80;;;11.40
68440;BMP180;55421;51.600;5.718;2022-09-21T01:00:28;220855.20;;;11.40
68440;BMP180;55421;51.600;5.718;2022-09-21T01:02:56;220881.59;;;11.50
68440;BMP180;55421;51.600;5.718;2022-09-21T01:05:27;220886.00;;;11.50
68440;BMP180;55421;51.600;5.718;2022-09-21T01:07:58;220895.59;;;11.50
68440;BMP180;55421;51.600;5.718;2022-09-21T01:10:34;220888.80;;;11.50
68440;BMP180;55421;51.600;5.718;2022-09-21T01:13:50;220864.80;;;11.46
68440;BMP180;55421;51.600;5.718;2022-09-21T01:16:34;220840.20;;;11.40
68440;BMP180;55421;51.600;5.718;2022-09-21T01:25:37;220783.80;;;11.30
68440;BMP180;55421;51.600;5.718;2022-09-21T01:31:02;220802.20;;;11.34
68440;BMP180;55421;51.600;5.718;2022-09-21T01:33:39;220793.20;;;11.30
68440;BMP180;55421;51.600;5.718;2022-09-21T01:36:14;220784.80;;;11.30
68440;BMP180;55421;51.600;5.718;2022-09-21T01:38:47;220783.80;;;11.30
68440;BMP180;55421;51.600;5.718;2022-09-21T01:41:23;220770.41;;;11.30
68440;BMP180;55421;51.600;5.718;2022-09-21T01:43:56;220748.41;;;11.28
68440;BMP180;55421;51.600;5.718;2022-09-21T01:46:29;220722.41;;;11.20
68440;BMP180;55421;51.600;5.718;2022-09-21T01:49:05;220682.41;;;11.10
68440;BMP180;55421;51.600;5.718;2022-09-21T01:51:39;220618.20;;;11.00
68440;BMP180;55421;51.600;5.718;2022-09-21T01:54:27;220583.80;;;11.00
68440;BMP180;55421;51.600;5.718;2022-09-21T01:57:33;220528.41;;;10.90
68440;BMP180;55421;51.600;5.718;2022-09-21T01:59:58;220470.20;;;10.80
68440;BMP180;55421;51.600;5.718;2022-09-21T02:05:05;220444.20;;;10.70
68440;BMP180;55421;51.600;5.718;2022-09-21T02:07:33;220420.20;;;10.70
68440;BMP180;55421;51.600;5.718;2022-09-21T02:10:04;220435.80;;;10.70
68440;BMP180;55421;51.600;5.718;2022-09-21T02:12:32;220421.41;;;10.70
68440;BMP180;55421;51.600;5.718;2022-09-21T02:15:01;220400.80;;;10.60
68440;BMP180;55421;51.600;5.718;2022-09-21T02:17:47;220396.20;;;10.60
68440;BMP180;55421;51.600;5.718;2022-09-21T02:20:27;220413.80;;;10.70
68440;BMP180;55421;51.600;5.718;2022-09-21T02:23:14;220425.00;;;10.70
68440;BMP180;55421;51.600;5.718;2022-09-21T02:25:56;220427.41;;;10.70
68440;BMP180;55421;51.600;5.718;2022-09-21T02:31:00;220346.00;;;10.50
68440;BMP180;55421;51.600;5.718;2022-09-21T02:33:41;220296.00;;;10.50
68440;BMP180;55421;51.600;5.718;2022-09-21T02:36:26;220281.59;;;10.40
68440;BMP180;55421;51.600;5.718;2022-09-21T02:39:08;220264.20;;;10.40
68440;BMP180;55421;51.600;5.718;2022-09-21T02:42:11;220233.59;;;10.30
68440;BMP180;55421;51.600;5.718;2022-09-21T02:44:50;220198.80;;;10.30
68440;BMP180;55421;51.600;5.718;2022-09-21T02:47:26;220152.80;;;10.20
68440;BMP180;55421;51.600;5.718;2022-09-21T02:50:02;220111.20;;;10.10
68440;BMP180;55421;51.600;5.718;2022-09-21T02:52:32;220094.20;;;10.10
68440;BMP180;55421;51.600;5.718;2022-09-21T02:55:00;220097.41;;;10.10
68440;BMP180;55421;51.600;5.718;2022-09-21T02:57:28;220107.00;;;10.10
68440;BMP180;55421;51.600;5.718;2022-09-21T02:59:56;220109.59;;;10.10
68440;BMP180;55421;51.600;5.718;2022-09-21T03:02:23;220085.80;;;10.10
68440;BMP180;55421;51.600;5.718;2022-09-21T03:04:49;220058.20;;;10.00
68440;BMP180;55421;51.600;5.718;2022-09-21T03:07:16;220033.80;;;10.00
68440;BMP180;55421;51.600;5.718;2022-09-21T03:09:43;220011.00;;;9.90
68440;BMP180;55421;51.600;5.718;2022-09-21T03:12:10;219991.59;;;9.90
68440;BMP180;55421;51.600;5.718;2022-09-21T03:14:36;219988.80;;;9.90
68440;BMP180;55421;51.600;5.718;2022-09-21T03:17:03;219975.59;;;9.90
68440;BMP180;55421;51.600;5.718;2022-09-21T03:19:29;219968.00;;;9.90
68440;BMP180;55421;51.600;5.718;2022-09-21T03:21:56;219960.20;;;9.90
68440;BMP180;55421;51.600;5.718;2022-09-21T03:24:22;219943.80;;;9.80
68440;BMP180;55421;51.600;5.718;2022-09-21T03:27:07;219906.20;;;9.80
68440;BMP180;55421;51.600;5.718;2022-09-21T03:29:34;219919.00;;;9.80
68440;BMP180;55421;51.600;5.718;2022-09-21T03:32:01;219904.59;;;9.80
68440;BMP180;55421;51.600;5.718;2022-09-21T03:34:27;219894.20;;;9.70
68440;BMP180;55421;51.600;5.718;2022-09-21T03:36:54;219877.41;;;9.70
68440;BMP180;55421;51.600;5.718;2022-09-21T03:39:20;219859.00;;;9.70
68440;BMP180;55421;51.600;5.718;2022-09-21T03:41:47;219837.00;;;9.62
68440;BMP180;55421;51.600;5.718;2022-09-21T03:44:13;219829.00;;;9.60
68440;BMP180;55421;51.600;5.718;2022-09-21T03:46:43;219809.00;;;9.60
68440;BMP180;55421;51.600;5.718;2022-09-21T03:49:09;219795.59;;;9.60
68440;BMP180;55421;51.600;5.718;2022-09-21T03:51:36;219793.59;;;9.50
68440;BMP180;55421;51.600;5.718;2022-09-21T03:54:03;219790.00;;;9.52
68440;BMP180;55421;51.600;5.718;2022-09-21T03:56:30;219794.41;;;9.60
68440;BMP180;55421;51.600;5.718;2022-09-21T03:58:56;219801.59;;;9.60
68440;BMP180;55421;51.600;5.718;2022-09-21T04:01:23;219821.00;;;9.60
68440;BMP180;55421;51.600;5.718;2022-09-21T04:03:49;219817.00;;;9.60
68440;BMP180;55421;51.600;5.718;2022-09-21T04:06:16;219814.00;;;9.60
68440;BMP180;55421;51.600;5.718;2022-09-21T04:08:42;219773.20;;;9.50
68440;BMP180;55421;51.600;5.718;2022-09-21T04:11:15;219726.20;;;9.40
68440;BMP180;55421;51.600;5.718;2022-09-21T04:13:43;219729.00;;;9.42
68440;BMP180;55421;51.600;5.718;2022-09-21T04:16:10;219725.80;;;9.42
68440;BMP180;55421;51.600;5.718;2022-09-21T04:18:36;219708.59;;;9.40
68440;BMP180;55421;51.600;5.718;2022-09-21T04:21:04;219670.41;;;9.30
68440;BMP180;55421;51.600;5.718;2022-09-21T04:23:31;219667.80;;;9.30
68440;BMP180;55421;51.600;5.718;2022-09-21T04:25:58;219632.41;;;9.30
68440;BMP180;55421;51.600;5.718;2022-09-21T04:28:25;219618.00;;;9.20
68440;BMP180;55421;51.600;5.718;2022-09-21T04:30:53;219616.80;;;9.26
68440;BMP180;55421;51.600;5.718;2022-09-21T04:33:19;219634.00;;;9.30
68440;BMP180;55421;51.600;5.718;2022-09-21T04:35:55;219666.00;;;9.30
68440;BMP180;55421;51.600;5.718;2022-09-21T04:38:22;219693.00;;;9.40
68440;BMP180;55421;51.600;5.718;2022-09-21T04:40:56;219697.41;;;9.40
68440;BMP180;55421;51.600;5.718;2022-09-21T04:43:24;219686.20;;;9.40
68440;BMP180;55421;51.600;5.718;2022-09-21T04:45:51;219626.80;;;9.30
68440;BMP180;55421;51.600;5.718;2022-09-21T04:48:17;219591.59;;;9.20
68440;BMP180;55421;51.600;5.718;2022-09-21T04:50:48;219554.00;;;9.12
68440;BMP180;55421;51.600;5.718;2022-09-21T04:53:14;219543.20;;;9.10
68440;BMP180;55421;51.600;5.718;2022-09-21T04:55:41;219516.20;;;9.10
68440;BMP180;55421;51.600;5.718;2022-09-21T04:58:07;219513.20;;;9.10
68440;BMP180;55421;51.600;5.718;2022-09-21T05:00:34;219500.59;;;9.02
68440;BMP180;55421;51.600;5.718;2022-09-21T05:03:00;219468.41;;;9.00
68440;BMP180;55421;51.600;5.718;2022-09-21T05:05:27;219474.41;;;9.00
68440;BMP180;55421;51.600;5.718;2022-09-21T05:07:53;219507.00;;;9.08
68440;BMP180;55421;51.600;5.718;2022-09-21T05:10:21;219516.41;;;9.10
68440;BMP180;55421;51.600;5.718;2022-09-21T05:12:48;219483.00;;;9.00
68440;BMP180;55421;51.600;5.718;2022-09-21T05:15:14;219442.80;;;8.90
68440;BMP180;55421;51.600;5.718;2022-09-21T05:17:41;219436.41;;;8.90
68440;BMP180;55421;51.600;5.718;2022-09-21T05:20:09;219442.80;;;8.92
68440;BMP180;55421;51.600;5.718;2022-09-21T05:22:36;219436.80;;;8.90
68440;BMP180;55421;51.600;5.718;2022-09-21T05:25:03;219435.20;;;8.90
68440;BMP180;55421;51.600;5.718;2022-09-21T05:27:29;219457.20;;;9.00
68440;BMP180;55421;51.600;5.718;2022-09-21T05:29:56;219472.80;;;9.00
68440;BMP180;55421;51.600;5.718;2022-09-21T05:32:35;219479.20;;;9.00
68440;BMP180;55421;51.600;5.718;2022-09-21T05:38:02;219464.80;;;9.00
68440;BMP180;55421;51.600;5.718;2022-09-21T05:40:30;219454.41;;;8.96
68440;BMP180;55421;51.600;5.718;2022-09-21T05:42:56;219460.41;;;9.00
68440;BMP180;55421;51.600;5.718;2022-09-21T05:45:23;219477.59;;;9.00
68440;BMP180;55421;51.600;5.718;2022-09-21T05:48:47;219466.00;;;9.00
68440;BMP180;55421;51.600;5.718;2022-09-21T05:57:52;219484.59;;;9.00
68440;BMP180;55421;51.600;5.718;2022-09-21T06:00:22;219531.59;;;9.10
68440;BMP180;55421;51.600;5.718;2022-09-21T06:03:28;219576.00;;;9.20
68440;BMP180;55421;51.600;5.718;2022-09-21T06:05:56;219630.80;;;9.30
68440;BMP180;55421;51.600;5.718;2022-09-21T06:08:24;219640.41;;;9.30
68440;BMP180;55421;51.600;5.718;2022-09-21T06:10:53;219653.20;;;9.30
68440;BMP180;55421;51.600;5.718;2022-09-21T06:13:20;219684.20;;;9.40
68440;BMP180;55421;51.600;5.718;2022-09-21T06:15:46;219717.41;;;9.40
68440;BMP180;55421;51.600;5.718;2022-09-21T06:18:13;219765.59;;;9.50
68440;BMP180;55421;51.600;5.718;2022-09-21T06:20:39;219793.20;;;9.60
68440;BMP180;55421;51.600;5.718;2022-09-21T06:23:09;219833.80;;;9.62
68440;BMP180;55421;51.600;5.718;2022-09-21T06:25:37;219878.59;;;9.70
68440;BMP180;55421;51.600;5.718;2022-09-21T06:28:08;219906.20;;;9.80
68440;BMP180;55421;51.600;5.718;2022-09-21T06:30:36;219958.59;;;9.80
68440;BMP180;55421;51.600;5.718;2022-09-21T06:33:05;220009.41;;;9.90
68440;BMP180;55421;51.600;5.718;2022-09-21T06:35:34;220047.80;;;10.00
68440;BMP180;55421;51.600;5.718;2022-09-21T06:38:05;220097.41;;;10.10
68440;BMP180;55421;51.600;5.718;2022-09-21T06:40:34;220130.80;;;10.18
68440;BMP180;55421;51.600;5.718;2022-09-21T06:43:03;220162.80;;;10.20
68440;BMP180;55421;51.600;5.718;2022-09-21T06:45:30;220190.00;;;10.30
68440;BMP180;55421;51.600;5.718;2022-09-21T06:47:57;220228.80;;;10.30
68440;BMP180;55421;51.600;5.718;2022-09-21T06:50:24;220261.00;;;10.40
68440;BMP180;55421;51.600;5.718;2022-09-21T06:52:51;220300.41;;;10.50
68440;BMP180;55421;51.600;5.718;2022-09-21T06:55:17;220333.20;;;10.50
68440;BMP180;55421;51.600;5.718;2022-09-21T06:57:44;220355.59;;;10.54
68440;BMP180;55421;51.600;5.718;2022-09-21T07:00:13;220377.20;;;10.60
68440;BMP180;55421;51.600;5.718;2022-09-21T07:02:43;220405.20;;;10.60
68440;BMP180;55421;51.600;5.718;2022-09-21T07:05:11;220452.20;;;10.70
68440;BMP180;55421;51.600;5.718;2022-09-21T07:07:37;220499.80;;;10.80
68440;BMP180;55421;51.600;5.718;2022-09-21T07:10:06;220548.80;;;10.90
68440;BMP180;55421;51.600;5.718;2022-09-21T07:12:35;220583.80;;;11.00
68440;BMP180;55421;51.600;5.718;2022-09-21T07:15:04;220621.80;;;11.00
68440;BMP180;55421;51.600;5.718;2022-09-21T07:17:36;220648.59;;;11.10
68440;BMP180;55421;51.600;5.718;2022-09-21T07:20:05;220707.20;;;11.20
68440;BMP180;55421;51.600;5.718;2022-09-21T07:22:34;220753.59;;;11.30
68440;BMP180;55421;51.600;5.718;2022-09-21T07:25:01;220808.20;;;11.38
68440;BMP180;55421;51.600;5.718;2022-09-21T07:27:30;220833.00;;;11.40
68440;BMP180;55421;51.600;5.718;2022-09-21T07:29:57;220852.00;;;11.40
68440;BMP180;55421;51.600;5.718;2022-09-21T07:32:24;220872.00;;;11.50
68440;BMP180;55421;51.600;5.718;2022-09-21T07:34:54;220910.00;;;11.52
68440;BMP180;55421;51.600;5.718;2022-09-21T07:37:23;220947.20;;;11.60
68440;BMP180;55421;51.600;5.718;2022-09-21T07:39:51;221003.20;;;11.70
68440;BMP180;55421;51.600;5.718;2022-09-21T07:42:20;221043.20;;;11.80
68440;BMP180;55421;51.600;5.718;2022-09-21T07:44:48;221092.00;;;11.86
68440;BMP180;55421;51.600;5.718;2022-09-21T07:47:15;221142.80;;;11.90
68440;BMP180;55421;51.600;5.718;2022-09-21T07:49:42;221197.00;;;12.04
68440;BMP180;55421;51.600;5.718;2022-09-21T07:52:08;221233.80;;;12.10
68440;BMP180;55421;51.600;5.718;2022-09-21T07:54:35;221257.41;;;12.16
68440;BMP180;55421;51.600;5.718;2022-09-21T07:57:02;221285.41;;;12.20
68440;BMP180;55421;51.600;5.718;2022-09-21T07:59:47;221326.20;;;12.30
68440;BMP180;55421;51.600;5.718;2022-09-21T08:02:14;221358.59;;;12.30
68440;BMP180;55421;51.600;5.718;2022-09-21T08:04:41;221395.00;;;12.40
68440;BMP180;55421;51.600;5.718;2022-09-21T08:07:07;221426.59;;;12.50
68440;BMP180;55421;51.600;5.718;2022-09-21T08:09:34;221469.59;;;12.50
68440;BMP180;55421;51.600;5.718;2022-09-21T08:12:00;221496.41;;;12.60
68440;BMP180;55421;51.600;5.718;2022-09-21T08:14:27;221536.00;;;12.66
68440;BMP180;55421;51.600;5.718;2022-09-21T08:16:54;221601.41;;;12.80
68440;BMP180;55421;51.600;5.718;2022-09-21T08:19:21;221713.00;;;12.90
68440;BMP180;55421;51.600;5.718;2022-09-21T08:21:51;221741.41;;;12.90
68440;BMP180;55421;51.600;5.718;2022-09-21T08:24:19;221766.00;;;13.00
68440;BMP180;55421;51.600;5.718;2022-09-21T08:26:45;221972.59;;;13.10
68440;BMP180;55421;51.600;5.718;2022-09-21T08:29:11;221910.41;;;13.18
68440;BMP180;55421;51.600;5.718;2022-09-21T08:31:41;221964.59;;;13.20
68440;BMP180;55421;51.600;5.718;2022-09-21T08:34:08;222096.59;;;13.30
68440;BMP180;55421;51.600;5.718;2022-09-21T08:36:34;222340.00;;;13.40
68440;BMP180;55421;51.600;5.718;2022-09-21T08:39:01;222212.41;;;13.40
68440;BMP180;55421;51.600;5.718;2022-09-21T08:42:09;222132.00;;;13.50
68440;BMP180;55421;51.600;5.718;2022-09-21T08:44:46;222213.80;;;13.58
68440;BMP180;55421;51.600;5.718;2022-09-21T08:47:25;222178.80;;;13.60
68440;BMP180;55421;51.600;5.718;2022-09-21T08:49:57;222144.59;;;13.66
68440;BMP180;55421;51.600;5.718;2022-09-21T08:52:25;222150.80;;;13.70
68440;BMP180;55421;51.600;5.718;2022-09-21T08:55:24;222164.20;;;13.80
68440;BMP180;55421;51.600;5.718;2022-09-21T08:57:51;222276.80;;;13.96
68440;BMP180;55421;51.600;5.718;2022-09-21T09:00:19;222376.00;;;14.12
68440;BMP180;55421;51.600;5.718;2022-09-21T09:03:15;222419.59;;;14.20
68440;BMP180;55421;51.600;5.718;2022-09-21T09:06:30;222436.00;;;14.20
68440;BMP180;55421;51.600;5.718;2022-09-21T09:12:04;222486.00;;;14.30
68440;BMP180;55421;51.600;5.718;2022-09-21T09:17:53;222539.41;;;14.42
68440;BMP180;55421;51.600;5.718;2022-09-21T09:20:33;222564.59;;;14.50
68440;BMP180;55421;51.600;5.718;2022-09-21T09:23:25;222600.41;;;14.56
68440;BMP180;55421;51.600;5.718;2022-09-21T09:26:06;222648.41;;;14.60
68440;BMP180;55421;51.600;5.718;2022-09-21T09:28:41;222666.00;;;14.60
68440;BMP180;55421;51.600;5.718;2022-09-21T09:31:18;222699.80;;;14.70
68440;BMP180;55421;51.600;5.718;2022-09-21T09:36:32;222762.20;;;14.80
68440;BMP180;55421;51.600;5.718;2022-09-21T09:39:09;222779.80;;;14.90
68440;BMP180;55421;51.600;5.718;2022-09-21T09:44:56;222833.59;;;15.00
68440;BMP180;55421;51.600;5.718;2022-09-21T09:48:04;222869.20;;;15.00
68440;BMP180;55421;51.600;5.718;2022-09-21T09:50:40;222894.20;;;15.10
68440;BMP180;55421;51.600;5.718;2022-09-21T09:53:25;222901.80;;;15.10
68440;BMP180;55421;51.600;5.718;2022-09-21T09:55:55;222931.80;;;15.10
68440;BMP180;55421;51.600;5.718;2022-09-21T09:58:34;222978.80;;;15.20
68440;BMP180;55421;51.600;5.718;2022-09-21T10:01:03;223028.41;;;15.30
68440;BMP180;55421;51.600;5.718;2022-09-21T10:03:29;223084.00;;;15.40
68440;BMP180;55421;51.600;5.718;2022-09-21T10:05:56;223143.59;;;15.50
68440;BMP180;55421;51.600;5.718;2022-09-21T10:08:43;223195.59;;;15.60
68440;BMP180;55421;51.600;5.718;2022-09-21T10:11:13;223145.59;;;15.50
68440;BMP180;55421;51.600;5.718;2022-09-21T10:13:44;223057.20;;;15.32
68440;BMP180;55421;51.600;5.718;2022-09-21T10:16:22;222975.59;;;15.20
68440;BMP180;55421;51.600;5.718;2022-09-21T10:18:55;222947.41;;;15.14
68440;BMP180;55421;51.600;5.718;2022-09-21T10:21:35;222907.41;;;15.10
68440;BMP180;55421;51.600;5.718;2022-09-21T10:24:30;222865.41;;;15.00
68440;BMP180;55421;51.600;5.718;2022-09-21T10:27:17;222809.00;;;14.90
68440;BMP180;55421;51.600;5.718;2022-09-21T10:29:47;222774.20;;;14.82
68440;BMP180;55421;51.600;5.718;2022-09-21T10:37:39;222788.20;;;14.90
68440;BMP180;55421;51.600;5.718;2022-09-21T10:42:48;222938.20;;;15.12
68440;BMP180;55421;51.600;5.718;2022-09-21T10:45:18;223035.59;;;15.30
68440;BMP180;55421;51.600;5.718;2022-09-21T10:50:35;223190.41;;;15.60
68440;BMP180;55421;51.600;5.718;2022-09-21T10:56:05;223426.00;;;16.00
68440;BMP180;55421;51.600;5.718;2022-09-21T10:58:34;223372.80;;;15.90
68440;BMP180;55421;51.600;5.718;2022-09-21T11:01:27;223326.20;;;15.80
68440;BMP180;55421;51.600;5.718;2022-09-21T11:04:18;223298.20;;;15.80
68440;BMP180;55421;51.600;5.718;2022-09-21T11:07:01;223293.59;;;15.80
68440;BMP180;55421;51.600;5.718;2022-09-21T11:09:47;223287.00;;;15.76
68440;BMP180;55421;51.600;5.718;2022-09-21T11:12:46;223257.59;;;15.70
68440;BMP180;55421;51.600;5.718;2022-09-21T11:18:05;223198.80;;;15.60
68440;BMP180;55421;51.600;5.718;2022-09-21T11:20:52;223194.41;;;15.60
68440;BMP180;55421;51.600;5.718;2022-09-21T11:26:31;223397.59;;;15.92
68440;BMP180;55421;51.600;5.718;2022-09-21T11:37:49;223666.59;;;16.40
68440;BMP180;55421;51.600;5.718;2022-09-21T11:40:45;223665.00;;;16.40
68440;BMP180;55421;51.600;5.718;2022-09-21T11:46:26;223749.00;;;16.60
68440;BMP180;55421;51.600;5.718;2022-09-21T11:49:30;223807.59;;;16.70
68440;BMP180;55421;51.600;5.718;2022-09-21T11:55:01;223798.80;;;16.70
68440;BMP180;55421;51.600;5.718;2022-09-21T11:57:41;223825.59;;;16.70
68440;BMP180;55421;51.600;5.718;2022-09-21T12:00:17;223809.20;;;16.70
68440;BMP180;55421;51.600;5.718;2022-09-21T12:05:45;223785.20;;;16.60
68440;BMP180;55421;51.600;5.718;2022-09-21T12:13:44;223742.59;;;16.60
68440;BMP180;55421;51.600;5.718;2022-09-21T12:16:56;223737.00;;;16.58
68440;BMP180;55421;51.600;5.718;2022-09-21T12:19:32;223717.41;;;16.50
68440;BMP180;55421;51.600;5.718;2022-09-21T12:24:49;223616.00;;;16.34
68440;BMP180;55421;51.600;5.718;2022-09-21T12:27:26;223635.20;;;16.40
68440;BMP180;55421;51.600;5.718;2022-09-21T12:30:01;223679.41;;;16.44
68440;BMP180;55421;51.600;5.718;2022-09-21T12:35:57;223663.80;;;16.40
68440;BMP180;55421;51.600;5.718;2022-09-21T12:38:42;223656.59;;;16.40
68440;BMP180;55421;51.600;5.718;2022-09-21T12:41:32;223665.00;;;16.40
68440;BMP180;55421;51.600;5.718;2022-09-21T12:44:34;223668.20;;;16.40
68440;BMP180;55421;51.600;5.718;2022-09-21T12:47:44;223673.00;;;16.40
68440;BMP180;55421;51.600;5.718;2022-09-21T12:50:21;223674.59;;;16.40
68440;BMP180;55421;51.600;5.718;2022-09-21T12:52:50;223676.20;;;16.44
68440;BMP180;55421;51.600;5.718;2022-09-21T13:03:47;223666.59;;;16.40
68440;BMP180;55421;51.600;5.718;2022-09-21T13:06:35;223666.59;;;16.40
68440;BMP180;55421;51.600;5.718;2022-09-21T13:09:05;223687.41;;;16.46
68440;BMP180;55421;51.600;5.718;2022-09-21T13:11:53;223706.20;;;16.50
68440;BMP180;55421;51.600;5.718;2022-09-21T13:14:29;223735.80;;;16.54
68440;BMP180;55421;51.600;5.718;2022-09-21T13:17:02;223744.20;;;16.60
68440;BMP180;55421;51.600;5.718;2022-09-21T13:19:33;223778.80;;;16.60
68440;BMP180;55421;51.600;5.718;2022-09-21T13:22:10;223816.41;;;16.70
68440;BMP180;55421;51.600;5.718;2022-09-21T13:24:41;223856.41;;;16.78
68440;BMP180;55421;51.600;5.718;2022-09-21T13:27:08;223871.59;;;16.80
68440;BMP180;55421;51.600;5.718;2022-09-21T13:29:37;223859.20;;;16.80
68440;BMP180;55421;51.600;5.718;2022-09-21T13:34:39;223825.59;;;16.70
68440;BMP180;55421;51.600;5.718;2022-09-21T13:44:58;223797.20;;;16.70
68440;BMP180;55421;51.600;5.718;2022-09-21T13:47:32;223810.80;;;16.70
68440;BMP180;55421;51.600;5.718;2022-09-21T13:50:31;223818.00;;;16.70
68440;BMP180;55421;51.600;5.718;2022-09-21T13:53:02;223818.00;;;16.70
68440;BMP180;55421;51.600;5.718;2022-09-21T13:55:50;223815.20;;;16.70
68440;BMP180;55421;51.600;5.718;2022-09-21T13:58:27;223812.41;;;16.70
68440;BMP180;55421;51.600;5.718;2022-09-21T14:01:02;223810.41;;;16.70
68440;BMP180;55421;51.600;5.718;2022-09-21T14:03:37;223808.00;;;16.70
68440;BMP180;55421;51.600;5.718;2022-09-21T14:06:10;223809.20;;;16.70
68440;BMP180;55421;51.600;5.718;2022-09-21T14:08:46;223809.20;;;16.70
68440;BMP180;55421;51.600;5.718;2022-09-21T14:11:35;223819.20;;;16.70
68440;BMP180;55421;51.600;5.718;2022-09-21T14:14:25;223824.00;;;16.70
68440;BMP180;55421;51.600;5.718;2022-09-21T14:16:57;223825.59;;;16.70
68440;BMP180;55421;51.600;5.718;2022-09-21T14:24:34;223802.00;;;16.70
68440;BMP180;55421;51.600;5.718;2022-09-21T14:27:27;223788.41;;;16.60
68440;BMP180;55421;51.600;5.718;2022-09-21T14:30:03;223744.20;;;16.60
68440;BMP180;55421;51.600;5.718;2022-09-21T14:32:44;223701.80;;;16.50
68440;BMP180;55421;51.600;5.718;2022-09-21T14:35:19;223688.59;;;16.44
68440;BMP180;55421;51.600;5.718;2022-09-21T14:37:55;223660.59;;;16.40
68440;BMP180;55421;51.600;5.718;2022-09-21T14:40:27;223620.80;;;16.40
68440;BMP180;55421;51.600;5.718;2022-09-21T14:42:59;223591.41;;;16.30
68440;BMP180;55421;51.600;5.718;2022-09-21T14:45:59;223565.80;;;16.22
68440;BMP180;55421;51.600;5.718;2022-09-21T14:49:18;223529.80;;;16.20
68440;BMP180;55421;51.600;5.718;2022-09-21T14:52:20;223502.59;;;16.12
68440;BMP180;55421;51.600;5.718;2022-09-21T15:00:45;223528.20;;;16.20
68440;BMP180;55421;51.600;5.718;2022-09-21T15:06:25;223548.59;;;16.20
68440;BMP180;55421;51.600;5.718;2022-09-21T15:09:53;223563.80;;;16.20
68440;BMP180;55421;51.600;5.718;2022-09-21T15:12:54;223560.59;;;16.20
68440;BMP180;55421;51.600;5.718;2022-09-21T15:18:15;223564.20;;;16.20
68440;BMP180;55421;51.600;5.718;2022-09-21T15:21:00;223557.80;;;16.20
68440;BMP180;55421;51.600;5.718;2022-09-21T15:23:39;223545.41;;;16.20
68440;BMP180;55421;51.600;5.718;2022-09-21T15:26:15;223537.41;;;16.20
68440;BMP180;55421;51.600;5.718;2022-09-21T15:28:47;223527.00;;;16.20
68440;BMP180;55421;51.600;5.718;2022-09-21T15:31:16;223529.80;;;16.20
68440;BMP180;55421;51.600;5.718;2022-09-21T15:33:45;223519.80;;;16.20
68440;BMP180;55421;51.600;5.718;2022-09-21T15:36:26;223517.00;;;16.20
68440;BMP180;55421;51.600;5.718;2022-09-21T15:38:54;223510.59;;;16.16
68440;BMP180;55421;51.600;5.718;2022-09-21T15:46:44;223496.20;;;16.10
68440;BMP180;55421;51.600;5.718;2022-09-21T15:49:14;223494.59;;;16.10
68440;BMP180;55421;51.600;5.718;2022-09-21T15:51:43;223491.80;;;16.10
68440;BMP180;55421;51.600;5.718;2022-09-21T15:54:53;223486.20;;;16.10
68440;BMP180;55421;51.600;5.718;2022-09-21T15:57:35;223483.80;;;16.10
68440;BMP180;55421;51.600;5.718;2022-09-21T16:00:19;223475.00;;;16.10
68440;BMP180;55421;51.600;5.718;2022-09-21T16:03:01;223464.80;;;16.10
68440;BMP180;55421;51.600;5.718;2022-09-21T16:05:46;223451.59;;;16.00
68440;BMP180;55421;51.600;5.718;2022-09-21T16:10:48;223438.80;;;16.00
68440;BMP180;55421;51.600;5.718;2022-09-21T16:13:24;223426.41;;;16.00
68440;BMP180;55421;51.600;5.718;2022-09-21T16:16:13;223410.80;;;16.00
68440;BMP180;55421;51.600;5.718;2022-09-21T16:18:45;223388.00;;;15.90
68440;BMP180;55421;51.600;5.718;2022-09-21T16:21:31;223371.20;;;15.90
68440;BMP180;55421;51.600;5.718;2022-09-21T16:24:16;223357.80;;;15.90
68440;BMP180;55421;51.600;5.718;2022-09-21T16:26:56;223337.00;;;15.88
68440;BMP180;55421;51.600;5.718;2022-09-21T16:29:27;223321.41;;;15.80
68440;BMP180;55421;51.600;5.718;2022-09-21T16:34:50;223292.59;;;15.80
68440;BMP180;55421;51.600;5.718;2022-09-21T16:39:56;223262.41;;;15.70
68440;BMP180;55421;51.600;5.718;2022-09-21T16:42:27;223242.00;;;15.70
68440;BMP180;55421;51.600;5.718;2022-09-21T16:45:02;223221.20;;;15.60
68440;BMP180;55421;51.600;5.718;2022-09-21T16:47:36;223203.59;;;15.60
68440;BMP180;55421;51.600;5.718;2022-09-21T16:50:10;223183.20;;;15.60
68440;BMP180;55421;51.600;5.718;2022-09-21T16:52:37;223151.41;;;15.50
68440;BMP180;55421;51.600;5.718;2022-09-21T16:55:04;223128.59;;;15.48